createdAt,value
2019-03-13T00:01:43.527Z,19.13
2019-03-13T00:04:13.896Z,19.57
2019-03-13T00:06:44.273Z,23.87
2019-03-13T00:09:15.811Z,21.27
2019-03-13T00:11:46.308Z,20.43
2019-03-13T00:14:19.756Z,19.20
2019-03-13T00:16:50.170Z,19.07
2019-03-13T00:19:20.414Z,17.87
2019-03-13T00:21:51.613Z,17.00
2019-03-13T00:24:23.614Z,17.10
2019-03-13T00:26:54.008Z,16.13
2019-03-13T00:29:24.425Z,17.43
2019-03-13T00:31:55.824Z,17.57
2019-03-13T00:34:26.204Z,18.40
2019-03-13T00:36:56.594Z,18.43
2019-03-13T00:39:27.052Z,19.10
2019-03-13T00:41:57.466Z,18.23
2019-03-13T00:44:27.841Z,17.30
2019-03-13T00:46:58.230Z,17.90
2019-03-13T00:49:28.600Z,17.83
2019-03-13T00:51:59.408Z,17.63
2019-03-13T00:54:29.772Z,17.53
2019-03-13T00:57:00.148Z,16.40
2019-03-13T00:59:30.541Z,16.30
2019-03-13T01:02:13.730Z,16.63
2019-03-13T01:04:45.680Z,16.37
2019-03-13T01:07:17.579Z,18.73
2019-03-13T01:09:49.482Z,17.43
2019-03-13T01:12:21.233Z,15.60
2019-03-13T01:14:51.709Z,15.87
2019-03-13T01:17:23.754Z,16.40
2019-03-13T01:19:54.595Z,17.87
2019-03-13T01:22:25.857Z,17.77
2019-03-13T01:24:56.281Z,18.47
2019-03-13T01:27:26.691Z,19.73
2019-03-13T01:29:58.093Z,20.63
2019-03-13T01:32:46.590Z,19.23
2019-03-13T01:35:21.218Z,21.10
2019-03-13T01:37:51.524Z,18.80
2019-03-13T01:40:21.828Z,19.27
2019-03-13T01:42:52.202Z,19.90
2019-03-13T01:45:22.575Z,17.03
2019-03-13T01:47:53.015Z,17.03
2019-03-13T01:50:23.398Z,16.27
2019-03-13T01:52:53.795Z,16.27
2019-03-13T01:55:24.188Z,17.13
2019-03-13T01:57:54.643Z,16.17
2019-03-13T02:00:25.027Z,16.13
2019-03-13T02:02:55.399Z,17.50
2019-03-13T02:05:25.827Z,16.10
2019-03-13T02:07:56.247Z,16.57
2019-03-13T02:10:26.623Z,16.97
2019-03-13T02:12:57.029Z,14.93
2019-03-13T02:15:29.155Z,16.17
2019-03-13T02:17:59.585Z,16.70
2019-03-13T02:20:29.985Z,17.13
2019-03-13T02:23:00.395Z,16.27
2019-03-13T02:25:30.765Z,16.53
2019-03-13T02:28:01.133Z,15.50
2019-03-13T02:30:32.457Z,17.10
2019-03-13T02:33:02.881Z,18.13
2019-03-13T02:35:33.286Z,18.10
2019-03-13T02:38:03.686Z,18.83
2019-03-13T02:40:34.051Z,19.17
2019-03-13T02:43:04.417Z,19.33
2019-03-13T02:45:34.833Z,19.63
2019-03-13T02:48:05.264Z,20.47
2019-03-13T02:50:35.688Z,20.67
2019-03-13T02:53:06.080Z,20.03
2019-03-13T02:55:36.492Z,20.40
2019-03-13T02:58:06.889Z,20.30
2019-03-13T03:00:44.856Z,21.13
2019-03-13T03:03:19.916Z,20.17
2019-03-13T03:05:50.291Z,20.87
2019-03-13T03:08:20.669Z,22.40
2019-03-13T03:10:51.051Z,21.77
2019-03-13T03:13:21.445Z,21.50
2019-03-13T03:15:51.856Z,20.63
2019-03-13T03:18:22.244Z,22.03
2019-03-13T03:20:52.677Z,19.67
2019-03-13T03:23:23.048Z,21.77
2019-03-13T03:25:53.435Z,20.13
2019-03-13T03:28:23.793Z,20.67
2019-03-13T03:30:54.186Z,20.80
2019-03-13T03:33:24.622Z,18.73
2019-03-13T03:35:54.969Z,20.30
2019-03-13T03:38:25.340Z,18.47
2019-03-13T03:40:55.745Z,20.10
2019-03-13T03:43:39.335Z,22.70
2019-03-13T03:45:58.228Z,23.20
2019-03-13T03:48:28.643Z,23.33
2019-03-13T03:50:59.006Z,28.33
2019-03-13T03:53:29.398Z,32.47
2019-03-13T03:56:01.321Z,32.90
2019-03-13T03:58:31.692Z,34.63
2019-03-13T04:01:02.078Z,29.03
2019-03-13T04:03:32.483Z,26.83
2019-03-13T04:06:02.863Z,21.13
2019-03-13T04:08:37.415Z,23.80
2019-03-13T04:11:05.311Z,29.97
2019-03-13T04:13:35.697Z,26.87
2019-03-13T04:16:06.099Z,27.20
2019-03-13T04:18:36.443Z,29.43
2019-03-13T04:21:06.852Z,26.20
2019-03-13T04:23:37.114Z,21.23
2019-03-13T04:26:07.486Z,21.63
2019-03-13T04:28:37.829Z,23.77
2019-03-13T04:31:08.210Z,21.57
2019-03-13T04:33:38.598Z,19.47
2019-03-13T04:36:08.980Z,17.77
2019-03-13T04:38:39.340Z,16.63
2019-03-13T04:41:09.782Z,17.00
2019-03-13T04:43:40.148Z,16.80
2019-03-13T04:46:10.531Z,15.87
2019-03-13T04:48:40.871Z,15.87
2019-03-13T04:51:11.271Z,15.97
2019-03-13T04:53:41.631Z,16.37
2019-03-13T04:56:11.985Z,18.20
2019-03-13T04:58:42.330Z,18.50
2019-03-13T05:01:12.717Z,16.17
2019-03-13T05:03:43.103Z,14.70
2019-03-13T05:06:16.635Z,15.47
2019-03-13T05:08:47.324Z,14.47
2019-03-13T05:11:17.698Z,15.47
2019-03-13T05:13:48.070Z,14.37
2019-03-13T05:16:18.437Z,12.83
2019-03-13T05:18:48.809Z,14.20
2019-03-13T05:21:19.178Z,13.27
2019-03-13T05:23:49.562Z,16.90
2019-03-13T05:26:19.912Z,15.87
2019-03-13T05:28:50.299Z,17.40
2019-03-13T05:31:20.655Z,18.57
2019-03-13T05:33:51.010Z,16.80
2019-03-13T05:36:21.390Z,13.40
2019-03-13T05:38:51.748Z,12.47
2019-03-13T05:41:22.150Z,11.07
2019-03-13T05:43:52.534Z,11.43
2019-03-13T05:46:22.914Z,14.13
2019-03-13T05:48:53.294Z,12.67
2019-03-13T05:51:25.303Z,10.97
2019-03-13T05:53:55.670Z,9.63
2019-03-13T05:56:26.040Z,10.30
2019-03-13T05:58:56.443Z,9.83
2019-03-13T06:01:26.859Z,10.37
2019-03-13T06:03:57.240Z,11.37
2019-03-13T06:06:27.644Z,11.00
2019-03-13T06:08:58.045Z,10.63
2019-03-13T06:11:28.398Z,10.87
2019-03-13T06:13:58.779Z,10.10
2019-03-13T06:16:29.186Z,10.57
2019-03-13T06:18:59.585Z,10.37
2019-03-13T06:21:29.978Z,10.80
2019-03-13T06:24:00.369Z,10.80
2019-03-13T06:26:32.455Z,11.53
2019-03-13T06:29:04.428Z,11.00
2019-03-13T06:31:34.785Z,9.40
2019-03-13T06:34:05.184Z,11.10
2019-03-13T06:36:35.572Z,11.87
2019-03-13T06:39:07.239Z,10.33
2019-03-13T06:41:37.636Z,10.80
2019-03-13T06:44:08.044Z,10.87
2019-03-13T06:46:38.438Z,9.67
2019-03-13T06:49:08.827Z,9.90
2019-03-13T06:51:39.211Z,9.20
2019-03-13T06:54:09.556Z,10.20
2019-03-13T06:56:39.972Z,9.87
2019-03-13T06:59:13.551Z,10.53
2019-03-13T07:02:01.927Z,11.73
2019-03-13T07:04:49.946Z,11.13
2019-03-13T07:07:36.716Z,10.77
2019-03-13T07:10:10.679Z,9.73
2019-03-13T07:12:45.803Z,9.73
2019-03-13T07:15:17.811Z,9.57
2019-03-13T07:17:49.772Z,10.77
2019-03-13T07:20:21.840Z,10.63
2019-03-13T07:22:53.775Z,10.10
2019-03-13T07:25:25.768Z,9.73
2019-03-13T07:28:12.902Z,9.30
2019-03-13T07:30:51.757Z,9.07
2019-03-13T07:33:23.720Z,9.53
2019-03-13T07:35:58.518Z,8.80
2019-03-13T07:38:46.395Z,8.77
2019-03-13T07:41:18.376Z,8.23
2019-03-13T07:43:56.028Z,8.00
2019-03-13T07:46:27.974Z,7.70
2019-03-13T07:49:02.931Z,7.93
2019-03-13T07:51:46.638Z,7.80
2019-03-13T07:54:24.311Z,7.87
2019-03-13T07:57:14.117Z,8.80
2019-03-13T07:59:48.766Z,6.80
2019-03-13T08:02:36.696Z,5.77
2019-03-13T08:05:27.698Z,6.03
2019-03-13T08:08:05.362Z,6.33
2019-03-13T08:10:45.862Z,6.70
2019-03-13T08:13:20.514Z,5.37
2019-03-13T08:15:52.377Z,5.90
2019-03-13T08:18:27.276Z,5.70
2019-03-13T08:20:59.236Z,5.43
2019-03-13T08:23:46.097Z,4.27
2019-03-13T08:26:17.998Z,5.27
2019-03-13T08:28:55.596Z,5.13
2019-03-13T08:31:31.527Z,5.50
2019-03-13T08:34:15.312Z,5.60
2019-03-13T08:37:05.648Z,4.67
2019-03-13T08:39:37.472Z,5.07
2019-03-13T08:42:21.393Z,5.33
2019-03-13T08:45:05.206Z,4.80
2019-03-13T08:47:55.359Z,4.77
2019-03-13T08:50:30.160Z,4.10
2019-03-13T08:53:02.026Z,4.07
2019-03-13T08:55:36.884Z,4.10
2019-03-13T08:58:11.498Z,4.43
2019-03-13T09:00:43.352Z,4.73
2019-03-13T09:03:15.897Z,4.47
2019-03-13T09:05:59.304Z,4.50
2019-03-13T09:08:49.389Z,3.97
2019-03-13T09:11:24.216Z,4.23
2019-03-13T09:13:56.049Z,4.17
2019-03-13T09:16:33.604Z,4.00
2019-03-13T09:19:11.539Z,4.50
2019-03-13T09:21:59.867Z,4.23
2019-03-13T09:24:34.665Z,2.97
2019-03-13T09:27:06.501Z,3.53
2019-03-13T09:29:38.561Z,3.77
2019-03-13T09:32:25.671Z,3.33
2019-03-13T09:35:03.309Z,4.53
2019-03-13T09:37:41.186Z,3.80
2019-03-13T09:40:28.367Z,4.37
2019-03-13T09:43:00.233Z,4.33
2019-03-13T09:45:32.118Z,4.17
2019-03-13T09:48:04.055Z,3.83
2019-03-13T09:50:36.059Z,4.07
2019-03-13T09:53:07.899Z,3.30
2019-03-13T09:55:45.421Z,4.00
2019-03-13T09:58:23.046Z,4.07
2019-03-13T10:00:57.651Z,4.87
2019-03-13T10:03:29.593Z,5.80
2019-03-13T10:06:01.586Z,7.40
2019-03-13T10:08:51.408Z,6.93
2019-03-13T10:11:41.489Z,7.20
2019-03-13T10:14:13.467Z,10.80
2019-03-13T10:16:54.396Z,9.33
2019-03-13T10:19:43.340Z,4.80
2019-03-13T10:22:31.648Z,5.47
2019-03-13T10:25:12.703Z,4.10
2019-03-13T10:27:47.555Z,3.53
2019-03-13T10:30:19.411Z,4.53
2019-03-13T10:33:07.374Z,5.43
2019-03-13T10:35:51.603Z,3.47
2019-03-13T10:38:23.440Z,4.63
2019-03-13T10:40:55.379Z,3.20
2019-03-13T10:43:45.435Z,3.67
2019-03-13T10:46:18.308Z,3.27
2019-03-13T10:48:58.025Z,4.00
2019-03-13T10:51:32.612Z,3.70
2019-03-13T10:54:04.469Z,4.13
2019-03-13T10:56:36.344Z,3.93
2019-03-13T10:59:08.329Z,4.50
2019-03-13T11:01:43.212Z,5.23
2019-03-13T11:04:18.090Z,4.53
2019-03-13T11:06:58.914Z,5.20
2019-03-13T11:09:37.800Z,4.50
2019-03-13T11:12:09.644Z,5.17
2019-03-13T11:14:59.562Z,5.30
2019-03-13T11:17:43.712Z,4.97
2019-03-13T11:20:15.509Z,4.67
2019-03-13T11:22:47.473Z,3.70
2019-03-13T11:25:19.324Z,3.53
2019-03-13T11:28:03.107Z,4.40
2019-03-13T11:30:38.091Z,3.60
2019-03-13T11:33:09.927Z,3.80
2019-03-13T11:35:56.743Z,4.30
2019-03-13T11:38:28.561Z,4.13
2019-03-13T11:41:00.512Z,5.00
2019-03-13T11:43:32.433Z,6.17
2019-03-13T11:46:19.327Z,7.57
2019-03-13T11:49:02.579Z,5.50
2019-03-13T11:51:40.577Z,5.47
2019-03-13T11:54:28.816Z,4.43
2019-03-13T11:57:10.332Z,3.80
2019-03-13T11:59:43.297Z,3.50
2019-03-13T12:02:31.123Z,4.40
2019-03-13T12:05:10.500Z,4.53
2019-03-13T12:07:48.441Z,4.23
2019-03-13T12:10:35.058Z,3.80
2019-03-13T12:13:13.013Z,3.53
2019-03-13T12:15:55.074Z,3.43
2019-03-13T12:18:43.196Z,3.80
2019-03-13T12:21:31.368Z,3.93
2019-03-13T12:24:09.291Z,4.00
2019-03-13T12:26:57.501Z,4.00
2019-03-13T12:29:32.308Z,3.30
2019-03-13T12:32:10.166Z,3.70
2019-03-13T12:34:51.033Z,3.83
2019-03-13T12:37:22.875Z,7.10
2019-03-13T12:40:13.090Z,3.87
2019-03-13T12:43:01.402Z,4.43
2019-03-13T12:45:37.900Z,4.40
2019-03-13T12:48:16.901Z,3.90
2019-03-13T12:50:49.012Z,4.50
2019-03-13T12:53:33.319Z,4.37
2019-03-13T12:56:08.024Z,4.53
2019-03-13T12:58:42.547Z,4.23
2019-03-13T13:01:17.355Z,6.10
2019-03-13T13:03:55.054Z,5.73
2019-03-13T13:06:30.000Z,5.80
2019-03-13T13:09:13.916Z,7.30
2019-03-13T13:11:52.015Z,5.97
2019-03-13T13:14:38.811Z,4.80
2019-03-13T13:17:29.160Z,4.20
2019-03-13T13:19:59.494Z,3.83
2019-03-13T13:22:29.768Z,4.70
2019-03-13T13:25:00.416Z,5.20
2019-03-13T13:27:30.913Z,5.17
2019-03-13T13:30:01.372Z,4.17
2019-03-13T13:32:31.743Z,4.20
2019-03-13T13:35:02.024Z,4.33
2019-03-13T13:37:32.318Z,4.60
2019-03-13T13:40:02.705Z,3.80
2019-03-13T13:42:33.239Z,4.10
2019-03-13T13:45:05.102Z,4.50
2019-03-13T13:47:36.270Z,5.10
2019-03-13T13:50:10.972Z,4.67
2019-03-13T13:52:43.784Z,5.43
2019-03-13T13:55:14.241Z,4.93
2019-03-13T13:57:46.081Z,8.50
2019-03-13T14:00:16.539Z,7.90
2019-03-13T14:02:46.934Z,7.10
2019-03-13T14:05:17.329Z,5.10
2019-03-13T14:07:47.724Z,4.47
2019-03-13T14:10:18.045Z,4.43
2019-03-13T14:12:48.395Z,4.13
2019-03-13T14:15:18.707Z,4.40
2019-03-13T14:17:49.002Z,5.83
2019-03-13T14:20:19.402Z,5.30
2019-03-13T14:22:49.814Z,5.67
2019-03-13T14:25:20.184Z,5.37
2019-03-13T14:27:51.571Z,6.33
2019-03-13T14:30:23.162Z,4.63
2019-03-13T14:32:53.617Z,7.57
2019-03-13T14:35:24.079Z,7.10
2019-03-13T14:37:54.470Z,6.17
2019-03-13T14:40:26.158Z,5.00
2019-03-13T14:42:56.545Z,4.60
2019-03-13T14:45:26.933Z,4.23
2019-03-13T14:47:59.223Z,5.40
2019-03-13T14:50:31.247Z,4.77
2019-03-13T14:53:04.372Z,4.73
2019-03-13T14:55:36.329Z,4.97
2019-03-13T14:58:11.863Z,5.13
2019-03-13T15:00:49.355Z,7.17
2019-03-13T15:03:19.787Z,4.13
2019-03-13T15:05:52.219Z,4.90
2019-03-13T15:08:24.070Z,3.80
2019-03-13T15:10:55.621Z,3.57
2019-03-13T15:13:33.633Z,4.10
2019-03-13T15:16:05.699Z,4.13
2019-03-13T15:18:37.621Z,5.63
2019-03-13T15:21:08.013Z,5.47
2019-03-13T15:23:40.478Z,5.67
2019-03-13T15:26:14.033Z,6.20
2019-03-13T15:28:47.263Z,5.90
2019-03-13T15:31:19.812Z,6.73
2019-03-13T15:33:52.655Z,8.13
2019-03-13T15:36:25.505Z,8.90
2019-03-13T15:38:59.032Z,8.63
2019-03-13T15:41:30.234Z,8.30
2019-03-13T15:44:04.764Z,9.70
2019-03-13T15:46:39.039Z,9.10
2019-03-13T15:49:09.460Z,9.53
2019-03-13T15:51:42.431Z,9.37
2019-03-13T15:54:14.513Z,10.73
2019-03-13T15:56:46.478Z,10.67
2019-03-13T15:59:20.555Z,13.17
2019-03-13T16:01:54.838Z,11.83
2019-03-13T16:04:26.801Z,16.70
2019-03-13T16:06:59.929Z,12.70
2019-03-13T16:09:30.787Z,11.43
2019-03-13T16:12:08.447Z,9.63
2019-03-13T16:14:38.986Z,10.07
2019-03-13T16:17:11.665Z,10.57
2019-03-13T16:19:43.593Z,9.67
2019-03-13T16:22:17.057Z,8.80
2019-03-13T16:24:47.575Z,8.63
2019-03-13T16:27:17.989Z,8.80
2019-03-13T16:29:48.998Z,8.93
2019-03-13T16:32:28.366Z,8.77
2019-03-13T16:35:00.554Z,9.03
2019-03-13T16:37:30.981Z,10.53
2019-03-13T16:40:04.944Z,10.47
2019-03-13T16:42:39.074Z,11.97
2019-03-13T16:45:13.812Z,12.73
2019-03-13T16:47:46.298Z,11.27
2019-03-13T16:50:21.322Z,11.87
2019-03-13T16:52:52.553Z,11.30
2019-03-13T16:55:23.749Z,11.03
2019-03-13T16:58:00.145Z,10.50
2019-03-13T17:00:35.240Z,12.03
2019-03-13T17:03:06.755Z,11.17
2019-03-13T17:05:40.167Z,11.57
2019-03-13T17:08:12.140Z,13.27
2019-03-13T17:10:46.112Z,11.40
2019-03-13T17:13:16.871Z,10.43
2019-03-13T17:15:51.214Z,10.43
2019-03-13T17:18:31.254Z,9.63
2019-03-13T17:21:01.739Z,9.23
2019-03-13T17:23:32.146Z,10.13
2019-03-13T17:26:06.255Z,10.17
2019-03-13T17:28:37.636Z,9.63
2019-03-13T17:31:08.404Z,9.07
2019-03-13T17:33:41.029Z,8.63
2019-03-13T17:36:11.484Z,9.20
2019-03-13T17:38:44.761Z,9.13
2019-03-13T17:41:17.622Z,10.00
2019-03-13T17:43:51.185Z,9.57
2019-03-13T17:46:22.442Z,9.30
2019-03-13T17:48:56.446Z,9.30
2019-03-13T17:51:26.851Z,9.30
2019-03-13T17:54:05.017Z,10.50
2019-03-13T17:56:38.755Z,10.00
2019-03-13T17:59:12.195Z,10.53
2019-03-13T18:01:44.754Z,9.50
2019-03-13T18:04:18.049Z,11.20
2019-03-13T18:06:48.474Z,11.67
2019-03-13T18:09:21.525Z,11.77
2019-03-13T18:11:57.951Z,12.10
2019-03-13T18:14:31.990Z,11.70
2019-03-13T18:17:03.333Z,13.03
2019-03-13T18:19:38.695Z,14.30
2019-03-13T18:22:12.200Z,15.17
2019-03-13T18:24:44.354Z,14.33
2019-03-13T18:27:14.723Z,15.97
2019-03-13T18:29:47.433Z,14.17
2019-03-13T18:32:23.877Z,15.93
2019-03-13T18:34:55.840Z,14.80
2019-03-13T18:37:26.243Z,15.30
2019-03-13T18:39:58.256Z,15.67
2019-03-13T18:42:28.738Z,16.17
2019-03-13T18:45:02.710Z,14.20
2019-03-13T18:47:33.631Z,14.10
2019-03-13T18:50:08.361Z,14.53
2019-03-13T18:52:41.916Z,13.73
2019-03-13T18:55:24.349Z,13.00
2019-03-13T18:57:57.668Z,12.80
2019-03-13T19:00:35.150Z,15.10
2019-03-13T19:03:09.831Z,13.57
2019-03-13T19:05:43.333Z,12.43
2019-03-13T19:08:18.713Z,12.30
2019-03-13T19:10:50.778Z,11.27
2019-03-13T19:13:21.470Z,11.67
2019-03-13T19:15:54.813Z,13.37
2019-03-13T19:18:28.311Z,12.70
2019-03-13T19:21:05.488Z,12.43
2019-03-13T19:23:37.321Z,12.07
2019-03-13T19:26:19.249Z,12.33
2019-03-13T19:28:56.304Z,12.07
2019-03-13T19:31:27.960Z,12.60
2019-03-13T19:34:00.167Z,11.77
2019-03-13T19:36:30.606Z,13.23
2019-03-13T19:39:04.806Z,12.83
2019-03-13T19:41:39.066Z,12.47
2019-03-13T19:44:11.131Z,13.33
2019-03-13T19:46:42.169Z,13.00
2019-03-13T19:49:15.754Z,15.53
2019-03-13T19:51:54.174Z,14.83
2019-03-13T19:54:28.730Z,12.10
2019-03-13T19:57:00.822Z,10.80
2019-03-13T19:59:36.855Z,10.30
2019-03-13T20:02:08.772Z,10.33
2019-03-13T20:04:47.564Z,8.70
2019-03-13T20:07:19.511Z,8.60
2019-03-13T20:09:50.189Z,8.73
2019-03-13T20:12:25.736Z,8.43
2019-03-13T20:15:02.339Z,8.60
2019-03-13T20:17:41.664Z,8.10
2019-03-13T20:20:22.942Z,8.50
2019-03-13T20:23:10.440Z,9.40
2019-03-13T20:25:41.866Z,9.93
2019-03-13T20:28:14.067Z,11.80
2019-03-13T20:30:47.485Z,12.87
2019-03-13T20:33:22.326Z,20.87
2019-03-13T20:35:53.182Z,18.37
2019-03-13T20:38:25.873Z,22.47
2019-03-13T20:40:57.309Z,25.13
2019-03-13T20:43:27.747Z,23.07
2019-03-13T20:45:58.196Z,23.50
2019-03-13T20:48:30.295Z,24.03
2019-03-13T20:51:00.795Z,24.83
2019-03-13T20:53:31.189Z,23.43
2019-03-13T20:56:02.589Z,19.47
2019-03-13T20:58:33.045Z,19.07
2019-03-13T21:01:04.237Z,16.97
2019-03-13T21:03:36.165Z,15.37
2019-03-13T21:06:06.653Z,15.07
2019-03-13T21:08:38.608Z,14.77
2019-03-13T21:11:12.674Z,13.23
2019-03-13T21:13:43.065Z,14.50
2019-03-13T21:16:13.559Z,14.20
2019-03-13T21:18:47.070Z,13.83
2019-03-13T21:21:21.833Z,14.87
2019-03-13T21:23:53.855Z,13.83
2019-03-13T21:26:25.814Z,14.23
2019-03-13T21:28:57.761Z,13.90
2019-03-13T21:31:31.397Z,11.70
2019-03-13T21:34:01.786Z,11.50
2019-03-13T21:36:34.462Z,11.13
2019-03-13T21:39:05.664Z,10.63
2019-03-13T21:41:38.697Z,10.20
2019-03-13T21:44:09.088Z,9.97
2019-03-13T21:46:39.472Z,8.87
2019-03-13T21:49:11.421Z,9.37
2019-03-13T21:51:42.092Z,8.53
2019-03-13T21:54:12.500Z,9.90
2019-03-13T21:56:46.028Z,10.00
2019-03-13T21:59:18.687Z,8.60
2019-03-13T22:01:53.248Z,8.47
2019-03-13T22:04:25.963Z,9.50
2019-03-13T22:07:01.975Z,7.57
2019-03-13T22:09:32.376Z,8.90
2019-03-13T22:12:05.885Z,9.90
2019-03-13T22:14:38.601Z,9.77
2019-03-13T22:17:10.061Z,9.80
2019-03-13T22:19:40.610Z,9.03
2019-03-13T22:22:15.034Z,10.70
2019-03-13T22:24:46.476Z,19.87
2019-03-13T22:27:22.983Z,17.97
2019-03-13T22:30:08.593Z,17.27
2019-03-13T22:32:38.984Z,14.37
2019-03-13T22:35:11.664Z,16.43
2019-03-13T22:37:42.092Z,15.43
2019-03-13T22:40:26.986Z,16.40
2019-03-13T22:42:57.379Z,15.60
2019-03-13T22:45:27.912Z,16.17
2019-03-13T22:50:46.142Z,15.67
2019-03-13T22:53:19.262Z,16.93
2019-03-13T22:55:51.728Z,16.80
2019-03-13T22:58:24.535Z,18.20
2019-03-13T23:00:57.797Z,19.67
2019-03-13T23:03:30.755Z,19.33
2019-03-13T23:06:01.222Z,21.90
2019-03-13T23:08:31.641Z,21.87
2019-03-13T23:11:03.641Z,21.83
2019-03-13T23:13:34.054Z,22.03
2019-03-13T23:16:04.500Z,20.87
2019-03-13T23:18:35.589Z,20.87
2019-03-13T23:21:05.989Z,21.80
2019-03-13T23:23:38.131Z,20.83
2019-03-13T23:26:08.733Z,18.63
2019-03-13T23:28:39.451Z,20.13
2019-03-13T23:31:09.835Z,21.23
2019-03-13T23:33:40.237Z,17.47
2019-03-13T23:36:15.042Z,19.47
2019-03-13T23:38:49.852Z,20.80
2019-03-13T23:41:22.522Z,19.40
2019-03-13T23:43:55.730Z,18.00
2019-03-13T23:46:28.982Z,18.80
2019-03-13T23:48:59.402Z,18.37
2019-03-13T23:51:33.241Z,18.90
2019-03-13T23:54:10.143Z,17.97
2019-03-13T23:56:40.594Z,18.63
2019-03-13T23:59:15.312Z,18.47
